Time;durP1;ratioP1;P1;durP2;ratioP2;P2;SDS_P1;SDS_P2;PMS_P1;PMS_P2;Temp;Humidity;BMP_temperature;BMP_pressure;BME280_temperature;BME280_humidity;BME280_pressure;Samples;Min_cycle;Max_cycle;Signal;HPM_P1;HPM_P2
2023/07/27 00:01:16;;;;;;;7.55;2.55;;;;;;;;;;5086933;28;20062;-54
2023/07/27 00:03:43;;;;;;;11.75;3.03;;;;;;;;;;5086541;28;20020;-58
2023/07/27 00:06:11;;;;;;;9.65;3.40;;;;;;;;;;5086749;28;20047;-53
2023/07/27 00:08:38;;;;;;;10.20;3.65;;;;;;;;;;5086426;28;20032;-55
2023/07/27 00:11:04;;;;;;;8.23;2.65;;;;;;;;;;5086610;28;20028;-54
2023/07/27 00:13:32;;;;;;;8.18;3.10;;;;;;;;;;5086416;28;20039;-55
2023/07/27 00:15:59;;;;;;;10.65;3.08;;;;;;;;;;5086982;28;20021;-56
2023/07/27 00:18:26;;;;;;;9.57;3.40;;;;;;;;;;5086009;28;20350;-54
2023/07/27 00:20:52;;;;;;;7.55;3.20;;;;;;;;;;5086450;28;20024;-55
2023/07/27 00:23:19;;;;;;;10.82;2.88;;;;;;;;;;5086305;28;20032;-58
2023/07/27 00:25:46;;;;;;;7.60;2.80;;;;;;;;;;5086126;28;20031;-53
2023/07/27 00:28:13;;;;;;;6.85;2.60;;;;;;;;;;5086221;28;20027;-53
2023/07/27 00:30:39;;;;;;;6.88;2.88;;;;;;;;;;5086063;28;20067;-50
2023/07/27 00:33:06;;;;;;;7.03;2.42;;;;;;;;;;5085534;28;20203;-48
2023/07/27 00:35:32;;;;;;;7.35;2.47;;;;;;;;;;5084710;28;20032;-51
2023/07/27 00:37:59;;;;;;;8.45;2.70;;;;;;;;;;5085653;28;20024;-52
2023/07/27 00:40:26;;;;;;;5.63;2.00;;;;;;;;;;5085545;28;20020;-50
2023/07/27 00:42:53;;;;;;;10.35;3.20;;;;;;;;;;5084466;28;20227;-56
2023/07/27 00:45:19;;;;;;;9.73;3.05;;;;;;;;;;5085820;28;20086;-49
2023/07/27 00:47:46;;;;;;;9.10;2.17;;;;;;;;;;5084301;28;20016;-51
2023/07/27 00:50:13;;;;;;;5.15;2.03;;;;;;;;;;5084469;28;20020;-51
2023/07/27 00:52:41;;;;;;;4.72;1.90;;;;;;;;;;5085382;28;20090;-51
2023/07/27 00:55:08;;;;;;;9.25;3.00;;;;;;;;;;5066349;28;20300;-51
2023/07/27 00:57:35;;;;;;;7.68;3.08;;;;;;;;;;5073696;28;20235;-52
2023/07/27 01:00:02;;;;;;;6.65;1.80;;;;;;;;;;5065221;28;20305;-54
2023/07/27 01:02:29;;;;;;;7.65;2.00;;;;;;;;;;5065147;28;20024;-52
2023/07/27 01:04:56;;;;;;;5.72;1.80;;;;;;;;;;5059764;28;20240;-53
2023/07/27 01:07:25;;;;;;;4.75;1.98;;;;;;;;;;5073130;28;20032;-53
2023/07/27 01:09:54;;;;;;;10.13;3.10;;;;;;;;;;5051880;28;20100;-56
2023/07/27 01:12:52;;;;;;;8.90;2.50;;;;;;;;;;5049328;28;20082;-53
2023/07/27 01:15:21;;;;;;;5.75;2.30;;;;;;;;;;5061441;28;20041;-52
2023/07/27 01:18:21;;;;;;;8.90;2.25;;;;;;;;;;5056052;28;20021;-51
2023/07/27 01:20:54;;;;;;;18.55;2.10;;;;;;;;;;5046508;28;20041;-53
2023/07/27 01:23:31;;;;;;;6.38;1.90;;;;;;;;;;5055786;28;20017;-52
2023/07/27 01:25:57;;;;;;;6.53;1.50;;;;;;;;;;5045503;28;20033;-54
2023/07/27 01:28:52;;;;;;;7.57;2.03;;;;;;;;;;5054075;28;20021;-53
2023/07/27 01:31:26;;;;;;;6.53;1.42;;;;;;;;;;5060861;28;20061;-54
2023/07/27 01:33:58;;;;;;;7.35;1.55;;;;;;;;;;5047483;28;20024;-58
2023/07/27 01:36:30;;;;;;;6.13;1.63;;;;;;;;;;5053366;28;20029;-51
2023/07/27 01:39:00;;;;;;;6.28;1.48;;;;;;;;;;5049595;28;20041;-53
2023/07/27 01:41:31;;;;;;;3.70;1.73;;;;;;;;;;5061673;28;20067;-57
2023/07/27 01:43:59;;;;;;;34.28;4.13;;;;;;;;;;5059906;28;20050;-53
2023/07/27 01:46:30;;;;;;;4.90;1.85;;;;;;;;;;5047917;28;20039;-52
2023/07/27 01:48:57;;;;;;;4.45;1.75;;;;;;;;;;5055469;28;20044;-50
2023/07/27 01:51:25;;;;;;;4.38;1.42;;;;;;;;;;5048495;28;20064;-55
2023/07/27 01:53:54;;;;;;;7.18;1.70;;;;;;;;;;5068452;28;20029;-53
2023/07/27 01:56:21;;;;;;;7.03;1.52;;;;;;;;;;5061453;28;20029;-49
2023/07/27 01:58:48;;;;;;;4.88;1.70;;;;;;;;;;5064840;28;20043;-51
2023/07/27 02:01:15;;;;;;;6.35;1.80;;;;;;;;;;5064299;28;20040;-56
2023/07/27 02:03:42;;;;;;;3.80;1.40;;;;;;;;;;5065593;28;20058;-52
2023/07/27 02:06:19;;;;;;;5.72;1.35;;;;;;;;;;5064231;28;20052;-54
2023/07/27 02:08:46;;;;;;;6.93;1.60;;;;;;;;;;5058223;28;20021;-50
2023/07/27 02:11:16;;;;;;;5.38;1.30;;;;;;;;;;5053255;28;20025;-55
2023/07/27 02:13:45;;;;;;;6.20;1.58;;;;;;;;;;5043863;28;20034;-51
2023/07/27 02:16:13;;;;;;;4.45;1.48;;;;;;;;;;5050635;28;20029;-53
2023/07/27 02:18:41;;;;;;;9.60;1.85;;;;;;;;;;5048290;28;20220;-53
2023/07/27 02:21:08;;;;;;;8.73;1.40;;;;;;;;;;5044399;28;20076;-53
2023/07/27 02:23:36;;;;;;;10.98;1.98;;;;;;;;;;5043769;28;20044;-51
2023/07/27 02:26:03;;;;;;;6.63;1.42;;;;;;;;;;5044151;28;20115;-51
2023/07/27 02:28:30;;;;;;;8.88;1.60;;;;;;;;;;5047733;28;20022;-49
2023/07/27 02:30:56;;;;;;;3.65;1.52;;;;;;;;;;5051196;28;20037;-52
2023/07/27 02:33:24;;;;;;;5.57;1.67;;;;;;;;;;5043742;28;20376;-51
2023/07/27 02:35:52;;;;;;;6.78;1.60;;;;;;;;;;5044011;28;20029;-51
2023/07/27 02:38:19;;;;;;;15.85;2.08;;;;;;;;;;5043665;28;20014;-51
2023/07/27 02:40:46;;;;;;;4.63;1.63;;;;;;;;;;5043973;28;20088;-52
2023/07/27 02:43:13;;;;;;;7.13;1.67;;;;;;;;;;5043444;28;20147;-54
2023/07/27 02:45:39;;;;;;;4.78;1.85;;;;;;;;;;5043728;28;20044;-51
2023/07/27 02:48:06;;;;;;;4.45;1.90;;;;;;;;;;5052999;28;20088;-56
2023/07/27 02:50:36;;;;;;;6.03;1.67;;;;;;;;;;5045566;28;20217;-51
2023/07/27 02:53:04;;;;;;;4.68;1.60;;;;;;;;;;5062102;28;20053;-56
2023/07/27 02:55:30;;;;;;;4.60;1.48;;;;;;;;;;5056938;28;20029;-52
2023/07/27 02:57:57;;;;;;;3.08;1.40;;;;;;;;;;5054963;28;20072;-50
2023/07/27 03:00:23;;;;;;;5.57;1.70;;;;;;;;;;5043532;28;20032;-52
2023/07/27 03:02:50;;;;;;;8.23;1.50;;;;;;;;;;5043367;28;20240;-54
2023/07/27 03:05:17;;;;;;;7.90;1.50;;;;;;;;;;5043489;28;20309;-51
2023/07/27 03:07:43;;;;;;;14.02;2.33;;;;;;;;;;5043309;28;20021;-49
2023/07/27 03:10:10;;;;;;;33.70;3.83;;;;;;;;;;5043660;28;20029;-55
2023/07/27 03:12:37;;;;;;;20.35;3.15;;;;;;;;;;5043448;28;20055;-51
2023/07/27 03:15:04;;;;;;;11.70;2.20;;;;;;;;;;5043272;28;20044;-50
2023/07/27 03:17:32;;;;;;;8.60;2.03;;;;;;;;;;5044442;28;20040;-51
2023/07/27 03:19:58;;;;;;;17.63;2.13;;;;;;;;;;5055989;28;20021;-53
2023/07/27 03:22:25;;;;;;;4.43;1.50;;;;;;;;;;5047033;28;20051;-52
2023/07/27 03:24:51;;;;;;;7.97;1.85;;;;;;;;;;5055456;28;20035;-52
2023/07/27 03:27:18;;;;;;;9.10;2.22;;;;;;;;;;5052018;28;20061;-53
2023/07/27 03:29:45;;;;;;;6.68;1.95;;;;;;;;;;5049108;28;20231;-53
2023/07/27 03:32:11;;;;;;;3.75;1.23;;;;;;;;;;5055664;28;20220;-59
2023/07/27 03:34:38;;;;;;;5.13;1.77;;;;;;;;;;5046906;28;20236;-51
2023/07/27 03:37:05;;;;;;;6.35;1.80;;;;;;;;;;5047518;28;20044;-56
2023/07/27 03:39:32;;;;;;;4.97;1.60;;;;;;;;;;5047064;28;20135;-51
2023/07/27 03:41:58;;;;;;;6.10;1.67;;;;;;;;;;5062717;28;20268;-52
2023/07/27 03:44:28;;;;;;;4.57;1.60;;;;;;;;;;5046762;28;20069;-52
2023/07/27 03:46:55;;;;;;;3.03;1.30;;;;;;;;;;5062664;28;20367;-56
2023/07/27 03:49:22;;;;;;;4.20;1.63;;;;;;;;;;5047101;28;20033;-57
2023/07/27 03:51:49;;;;;;;4.60;1.38;;;;;;;;;;5047106;28;20017;-57
2023/07/27 03:54:17;;;;;;;7.65;1.75;;;;;;;;;;5054545;28;20346;-52
2023/07/27 03:56:43;;;;;;;4.93;1.70;;;;;;;;;;5066990;28;20190;-50
2023/07/27 03:59:10;;;;;;;4.68;1.67;;;;;;;;;;5066904;28;20025;-55
2023/07/27 04:01:37;;;;;;;3.40;1.50;;;;;;;;;;5060418;28;20056;-56
2023/07/27 04:04:03;;;;;;;4.00;1.55;;;;;;;;;;5047978;28;20040;-51
2023/07/27 04:06:30;;;;;;;3.05;1.38;;;;;;;;;;5066274;28;20300;-51
2023/07/27 04:08:57;;;;;;;6.85;1.70;;;;;;;;;;5066204;28;20025;-51
2023/07/27 04:11:24;;;;;;;6.93;1.98;;;;;;;;;;5066497;28;20067;-51
2023/07/27 04:13:50;;;;;;;7.93;1.92;;;;;;;;;;5066180;28;20085;-51
2023/07/27 04:16:17;;;;;;;4.90;1.60;;;;;;;;;;5066366;28;20029;-51
2023/07/27 04:18:44;;;;;;;14.48;2.20;;;;;;;;;;5066253;28;20324;-57
2023/07/27 04:21:10;;;;;;;5.68;2.03;;;;;;;;;;5066551;28;20016;-53
2023/07/27 04:23:37;;;;;;;9.10;2.00;;;;;;;;;;5066549;28;20037;-50
2023/07/27 04:26:04;;;;;;;4.00;1.88;;;;;;;;;;5066441;28;20150;-52
2023/07/27 04:28:30;;;;;;;7.85;2.47;;;;;;;;;;5065950;28;20025;-54
2023/07/27 04:30:57;;;;;;;4.30;2.00;;;;;;;;;;5064416;28;20029;-53
2023/07/27 04:33:25;;;;;;;6.72;2.15;;;;;;;;;;5065875;28;20040;-53
2023/07/27 04:35:53;;;;;;;8.35;3.25;;;;;;;;;;5065920;28;20334;-59
2023/07/27 04:38:20;;;;;;;7.90;2.80;;;;;;;;;;5065553;28;20316;-54
2023/07/27 04:40:46;;;;;;;7.22;2.90;;;;;;;;;;5065816;28;20029;-50
2023/07/27 04:43:13;;;;;;;9.55;3.38;;;;;;;;;;5065568;28;20100;-52
2023/07/27 04:45:40;;;;;;;16.95;5.30;;;;;;;;;;5065437;28;20108;-52
2023/07/27 04:48:07;;;;;;;20.67;4.22;;;;;;;;;;5065496;28;20091;-51
2023/07/27 04:50:34;;;;;;;21.40;4.63;;;;;;;;;;5065796;28;20228;-54
2023/07/27 04:53:01;;;;;;;9.90;3.35;;;;;;;;;;5065257;28;20033;-50
2023/07/27 04:55:28;;;;;;;12.65;3.30;;;;;;;;;;5065600;28;20056;-50
2023/07/27 04:57:55;;;;;;;9.43;2.95;;;;;;;;;;5065349;28;20071;-50
2023/07/27 05:00:21;;;;;;;19.85;3.65;;;;;;;;;;5065254;28;20075;-50
2023/07/27 05:02:48;;;;;;;9.60;2.80;;;;;;;;;;5065237;28;20037;-49
2023/07/27 05:05:15;;;;;;;13.27;3.67;;;;;;;;;;5065327;28;20017;-52
2023/07/27 05:07:41;;;;;;;14.40;2.70;;;;;;;;;;5065010;28;20032;-55
2023/07/27 05:10:08;;;;;;;9.38;2.33;;;;;;;;;;5065242;28;20263;-53
2023/07/27 05:12:35;;;;;;;7.90;2.42;;;;;;;;;;5065049;28;20021;-53
2023/07/27 05:15:02;;;;;;;7.47;2.28;;;;;;;;;;5064535;28;20052;-52
2023/07/27 05:17:28;;;;;;;6.88;2.05;;;;;;;;;;5064875;28;20105;-55
2023/07/27 05:19:56;;;;;;;5.22;1.63;;;;;;;;;;5064920;28;20323;-52
2023/07/27 05:22:22;;;;;;;6.45;2.00;;;;;;;;;;5064716;28;20320;-50
2023/07/27 05:24:49;;;;;;;12.95;2.25;;;;;;;;;;5064706;28;20033;-52
2023/07/27 05:27:16;;;;;;;11.85;2.53;;;;;;;;;;5064863;28;20037;-53
2023/07/27 05:29:42;;;;;;;11.70;1.85;;;;;;;;;;5064539;28;20032;-53
2023/07/27 05:32:09;;;;;;;6.85;2.40;;;;;;;;;;5064567;28;20270;-49
2023/07/27 05:34:36;;;;;;;10.77;2.08;;;;;;;;;;5064600;28;20068;-52
2023/07/27 05:37:02;;;;;;;5.10;1.92;;;;;;;;;;5065038;28;20143;-56
2023/07/27 05:39:29;;;;;;;6.07;1.70;;;;;;;;;;5064505;28;20033;-50
2023/07/27 05:41:56;;;;;;;7.75;1.80;;;;;;;;;;5062732;28;20332;-55
2023/07/27 05:44:22;;;;;;;4.95;1.90;;;;;;;;;;5062250;28;20044;-52
2023/07/27 05:46:52;;;;;;;9.95;2.20;;;;;;;;;;5056133;28;20348;-52
2023/07/27 05:49:19;;;;;;;10.75;1.80;;;;;;;;;;5049159;28;20209;-50
2023/07/27 05:51:45;;;;;;;13.35;2.78;;;;;;;;;;5064407;28;20029;-50
2023/07/27 05:54:12;;;;;;;6.95;1.95;;;;;;;;;;5064423;28;20333;-51
2023/07/27 05:56:40;;;;;;;15.30;2.55;;;;;;;;;;5064689;28;20057;-50
2023/07/27 05:59:07;;;;;;;9.65;1.90;;;;;;;;;;5064207;28;20217;-50
2023/07/27 06:01:34;;;;;;;16.17;2.03;;;;;;;;;;5069525;28;20025;-50
2023/07/27 06:04:02;;;;;;;6.40;1.85;;;;;;;;;;5077488;28;20031;-48
2023/07/27 06:06:29;;;;;;;4.65;1.70;;;;;;;;;;5084524;28;20249;-48
2023/07/27 06:08:56;;;;;;;2.88;1.40;;;;;;;;;;5083986;28;20251;-49
2023/07/27 06:11:23;;;;;;;4.18;1.75;;;;;;;;;;5084523;28;20020;-47
2023/07/27 06:13:49;;;;;;;9.60;2.03;;;;;;;;;;5084065;28;20031;-52
2023/07/27 06:16:16;;;;;;;11.32;1.90;;;;;;;;;;5084215;28;20036;-49
2023/07/27 06:18:43;;;;;;;24.50;2.75;;;;;;;;;;5084052;28;20023;-46
2023/07/27 06:21:09;;;;;;;5.25;1.73;;;;;;;;;;5084454;28;20033;-51
2023/07/27 06:23:36;;;;;;;4.55;1.75;;;;;;;;;;5083896;28;20044;-52
2023/07/27 06:26:03;;;;;;;5.05;1.80;;;;;;;;;;5062938;28;20024;-49
2023/07/27 06:28:29;;;;;;;6.05;1.52;;;;;;;;;;5046813;28;20033;-50
2023/07/27 06:30:56;;;;;;;6.15;1.83;;;;;;;;;;5043648;28;20042;-50
2023/07/27 06:33:23;;;;;;;9.13;2.05;;;;;;;;;;5043992;28;20017;-49
2023/07/27 06:35:51;;;;;;;5.78;1.90;;;;;;;;;;5055437;28;20033;-52
2023/07/27 06:38:17;;;;;;;3.10;1.60;;;;;;;;;;5043756;28;20029;-51
2023/07/27 06:40:45;;;;;;;4.93;1.67;;;;;;;;;;5044038;28;20025;-52
2023/07/27 06:43:12;;;;;;;4.40;1.52;;;;;;;;;;5043904;28;20049;-56
2023/07/27 06:45:39;;;;;;;6.40;1.88;;;;;;;;;;5043805;28;20037;-51
2023/07/27 06:48:06;;;;;;;3.85;1.83;;;;;;;;;;5043682;28;20026;-54
2023/07/27 06:50:32;;;;;;;7.30;1.70;;;;;;;;;;5043633;28;20101;-55
2023/07/27 06:52:59;;;;;;;4.85;1.55;;;;;;;;;;5043481;28;20034;-53
2023/07/27 06:55:26;;;;;;;5.00;1.77;;;;;;;;;;5046744;28;20026;-52
2023/07/27 06:57:55;;;;;;;7.10;1.58;;;;;;;;;;5047648;28;20092;-52
2023/07/27 07:00:22;;;;;;;4.05;1.52;;;;;;;;;;5047571;28;20037;-52
2023/07/27 07:02:49;;;;;;;4.40;1.73;;;;;;;;;;5047597;28;20182;-54
2023/07/27 07:05:15;;;;;;;5.25;1.63;;;;;;;;;;5047584;28;20037;-55
2023/07/27 07:07:43;;;;;;;5.47;1.77;;;;;;;;;;5047303;28;20052;-53
2023/07/27 07:10:10;;;;;;;2.92;1.42;;;;;;;;;;5047463;28;20025;-55
2023/07/27 07:12:37;;;;;;;7.55;1.58;;;;;;;;;;5047338;28;20252;-50
2023/07/27 07:15:04;;;;;;;7.40;1.42;;;;;;;;;;5047205;28;20044;-50
2023/07/27 07:17:31;;;;;;;5.15;1.60;;;;;;;;;;5047362;28;20020;-53
2023/07/27 07:19:58;;;;;;;6.53;1.63;;;;;;;;;;5047227;28;20355;-50
2023/07/27 07:22:24;;;;;;;37.58;3.30;;;;;;;;;;5047086;28;20041;-52
2023/07/27 07:24:51;;;;;;;11.80;1.80;;;;;;;;;;5047495;28;20084;-50
2023/07/27 07:27:17;;;;;;;9.55;1.92;;;;;;;;;;5055470;28;20236;-53
2023/07/27 07:29:44;;;;;;;8.43;1.90;;;;;;;;;;5066796;28;20039;-52
2023/07/27 07:32:12;;;;;;;7.18;1.58;;;;;;;;;;5067024;28;20080;-53
2023/07/27 07:34:38;;;;;;;5.05;1.60;;;;;;;;;;5066898;28;20044;-55
2023/07/27 07:37:05;;;;;;;6.68;1.60;;;;;;;;;;5067245;28;20036;-53
2023/07/27 07:39:31;;;;;;;15.25;1.88;;;;;;;;;;5066919;28;20025;-52
2023/07/27 07:42:00;;;;;;;5.45;1.35;;;;;;;;;;5067301;28;20333;-50
2023/07/27 07:44:26;;;;;;;5.95;1.67;;;;;;;;;;5066468;28;20047;-54
2023/07/27 07:46:53;;;;;;;40.17;3.10;;;;;;;;;;5067163;28;20068;-56
2023/07/27 07:49:19;;;;;;;4.75;1.42;;;;;;;;;;5066745;28;20025;-51
2023/07/27 07:51:46;;;;;;;3.88;1.33;;;;;;;;;;5067018;28;20037;-54
2023/07/27 07:54:13;;;;;;;5.20;1.50;;;;;;;;;;5066513;28;20028;-53
2023/07/27 07:56:39;;;;;;;4.53;1.40;;;;;;;;;;5067022;28;20296;-53
2023/07/27 07:59:06;;;;;;;4.53;1.40;;;;;;;;;;5066478;28;20025;-57
2023/07/27 08:01:33;;;;;;;3.97;1.30;;;;;;;;;;5066800;28;20021;-51
2023/07/27 08:03:59;;;;;;;3.33;1.35;;;;;;;;;;5066455;28;20216;-56
2023/07/27 08:06:26;;;;;;;6.25;1.35;;;;;;;;;;5066243;28;20045;-54
2023/07/27 08:08:53;;;;;;;3.28;1.30;;;;;;;;;;5066162;28;20012;-57
2023/07/27 08:11:19;;;;;;;17.40;2.30;;;;;;;;;;5066664;28;20037;-62
2023/07/27 08:13:46;;;;;;;12.45;1.48;;;;;;;;;;5066210;28;20036;-56
2023/07/27 08:16:13;;;;;;;15.88;2.50;;;;;;;;;;5066320;28;20196;-56
2023/07/27 08:18:39;;;;;;;17.20;1.40;;;;;;;;;;5066222;28;20320;-51
2023/07/27 08:21:07;;;;;;;2.53;0.90;;;;;;;;;;5066318;28;20044;-49
2023/07/27 08:23:34;;;;;;;6.13;1.00;;;;;;;;;;5065927;28;20059;-47
2023/07/27 08:26:01;;;;;;;7.00;0.82;;;;;;;;;;5066258;28;20037;-48
2023/07/27 08:28:28;;;;;;;32.30;2.60;;;;;;;;;;5065936;28;20382;-49
2023/07/27 08:30:55;;;;;;;3.63;0.80;;;;;;;;;;5065986;28;20339;-49
2023/07/27 08:33:21;;;;;;;4.13;1.20;;;;;;;;;;5065682;28;20040;-47
2023/07/27 08:35:48;;;;;;;3.25;0.63;;;;;;;;;;5066045;28;20040;-48
2023/07/27 08:38:15;;;;;;;4.13;0.80;;;;;;;;;;5065644;28;20232;-54
2023/07/27 08:40:41;;;;;;;3.45;0.80;;;;;;;;;;5065959;28;20248;-50
2023/07/27 08:43:09;;;;;;;3.28;0.90;;;;;;;;;;5065572;28;20045;-55
2023/07/27 08:45:36;;;;;;;2.20;0.90;;;;;;;;;;5065623;28;20239;-55
2023/07/27 08:48:05;;;;;;;4.78;0.75;;;;;;;;;;5065542;28;20025;-53
2023/07/27 08:50:31;;;;;;;2.10;0.90;;;;;;;;;;5065714;28;20047;-56
2023/07/27 08:52:58;;;;;;;2.88;0.85;;;;;;;;;;5065253;28;20352;-57
2023/07/27 08:55:25;;;;;;;7.90;1.10;;;;;;;;;;5065517;28;20200;-51
2023/07/27 08:57:52;;;;;;;4.50;1.00;;;;;;;;;;5065378;28;20355;-53
2023/07/27 09:00:19;;;;;;;6.28;0.80;;;;;;;;;;5065342;28;20088;-57
2023/07/27 09:02:45;;;;;;;3.95;0.60;;;;;;;;;;5065268;28;20033;-52
2023/07/27 09:05:15;;;;;;;3.13;0.70;;;;;;;;;;5065333;28;20100;-50
2023/07/27 09:07:42;;;;;;;2.70;0.75;;;;;;;;;;5065034;28;20032;-51
2023/07/27 09:10:09;;;;;;;2.25;0.80;;;;;;;;;;5065268;28;20317;-54
2023/07/27 09:12:36;;;;;;;3.60;0.70;;;;;;;;;;5065082;28;20036;-57
2023/07/27 09:15:07;;;;;;;12.98;1.50;;;;;;;;;;5064871;28;20036;-50
2023/07/27 09:17:34;;;;;;;1.52;0.60;;;;;;;;;;5064155;28;20032;-48
2023/07/27 09:20:01;;;;;;;2.67;0.70;;;;;;;;;;5058735;28;20233;-51
2023/07/27 09:22:28;;;;;;;3.40;0.73;;;;;;;;;;5045392;28;20080;-49
2023/07/27 09:24:57;;;;;;;2.40;0.50;;;;;;;;;;5044836;28;20037;-49
2023/07/27 09:27:24;;;;;;;9.07;1.23;;;;;;;;;;5044856;28;20033;-55
2023/07/27 09:29:58;;;;;;;5.70;1.08;;;;;;;;;;5044577;28;20021;-50
2023/07/27 09:32:25;;;;;;;4.80;0.70;;;;;;;;;;5044697;28;20025;-54
2023/07/27 09:34:56;;;;;;;55.85;4.28;;;;;;;;;;5044610;28;20040;-51
2023/07/27 09:37:23;;;;;;;3.17;0.60;;;;;;;;;;5044751;28;20026;-49
2023/07/27 09:39:52;;;;;;;2.63;0.47;;;;;;;;;;5044532;28;20088;-49
2023/07/27 09:42:19;;;;;;;5.00;0.70;;;;;;;;;;5044520;28;20041;-52
2023/07/27 09:44:50;;;;;;;5.38;0.32;;;;;;;;;;5044402;28;20314;-49
2023/07/27 09:47:20;;;;;;;16.10;1.17;;;;;;;;;;5044541;28;20025;-53
2023/07/27 09:49:50;;;;;;;2.70;0.68;;;;;;;;;;5044313;28;20047;-50
2023/07/27 09:52:19;;;;;;;1.40;0.57;;;;;;;;;;5050143;28;20310;-55
2023/07/27 09:54:48;;;;;;;10.13;0.60;;;;;;;;;;5049188;28;20036;-51
2023/07/27 09:57:15;;;;;;;6.90;0.77;;;;;;;;;;5044223;28;20027;-51
2023/07/27 09:59:43;;;;;;;4.35;0.50;;;;;;;;;;5044339;28;20024;-52
2023/07/27 10:02:09;;;;;;;3.65;0.90;;;;;;;;;;5044257;28;20036;-50
2023/07/27 10:04:36;;;;;;;3.97;1.02;;;;;;;;;;5055765;28;20025;-50
2023/07/27 10:07:03;;;;;;;5.13;0.93;;;;;;;;;;5072343;28;20099;-49
2023/07/27 10:09:30;;;;;;;3.17;0.70;;;;;;;;;;5064111;28;20331;-51
2023/07/27 10:11:57;;;;;;;4.55;0.55;;;;;;;;;;5063885;28;20029;-48
2023/07/27 10:14:26;;;;;;;3.33;0.40;;;;;;;;;;5064124;28;20025;-55
2023/07/27 10:17:03;;;;;;;4.35;1.00;;;;;;;;;;5064438;28;20309;-50
2023/07/27 10:19:41;;;;;;;11.88;1.50;;;;;;;;;;5064058;28;20324;-57
2023/07/27 10:22:09;;;;;;;6.47;1.25;;;;;;;;;;5063981;28;20066;-51
2023/07/27 10:24:53;;;;;;;9.25;1.67;;;;;;;;;;5062582;28;20020;-59
2023/07/27 10:27:20;;;;;;;13.65;1.92;;;;;;;;;;5063920;28;20051;-50
2023/07/27 10:30:09;;;;;;;12.93;2.75;;;;;;;;;;5063458;28;20041;-55
2023/07/27 10:32:36;;;;;;;6.13;1.60;;;;;;;;;;5063833;28;20090;-52
2023/07/27 10:35:09;;;;;;;5.32;1.70;;;;;;;;;;5063561;28;20024;-53
2023/07/27 10:37:53;;;;;;;8.68;1.30;;;;;;;;;;5064066;28;20218;-56
2023/07/27 10:40:30;;;;;;;8.90;1.58;;;;;;;;;;5063865;28;20127;-59
2023/07/27 10:42:58;;;;;;;7.30;1.00;;;;;;;;;;5068986;28;20335;-50
2023/07/27 10:45:25;;;;;;;9.07;1.50;;;;;;;;;;5080880;28;20063;-51
2023/07/27 10:47:56;;;;;;;7.20;3.90;;;;;;;;;;5083936;28;20032;-52
2023/07/27 10:50:23;;;;;;;6.68;2.30;;;;;;;;;;5083704;28;20032;-51
2023/07/27 10:52:53;;;;;;;6.75;1.42;;;;;;;;;;5083589;28;20027;-54
2023/07/27 10:55:21;;;;;;;3.88;1.27;;;;;;;;;;5079288;28;20033;-51
2023/07/27 10:57:48;;;;;;;5.25;1.30;;;;;;;;;;5053066;28;20017;-51
2023/07/27 11:00:15;;;;;;;5.45;1.17;;;;;;;;;;5063529;28;20249;-51
2023/07/27 11:02:44;;;;;;;9.60;1.55;;;;;;;;;;5063564;28;20313;-57
2023/07/27 11:05:13;;;;;;;12.32;1.35;;;;;;;;;;5063607;28;20040;-51
2023/07/27 11:07:44;;;;;;;12.48;1.52;;;;;;;;;;5063352;28;20373;-51
2023/07/27 11:10:17;;;;;;;6.83;1.10;;;;;;;;;;5065397;28;20044;-52
2023/07/27 11:12:48;;;;;;;4.60;1.35;;;;;;;;;;5063350;28;20282;-50
2023/07/27 11:15:15;;;;;;;4.60;0.90;;;;;;;;;;5063395;28;20067;-51
2023/07/27 11:17:42;;;;;;;4.07;0.70;;;;;;;;;;5063402;28;20062;-51
2023/07/27 11:20:10;;;;;;;3.30;0.82;;;;;;;;;;5063721;28;20025;-58
2023/07/27 11:22:37;;;;;;;5.10;0.77;;;;;;;;;;5063375;28;20036;-52
2023/07/27 11:25:08;;;;;;;9.85;1.52;;;;;;;;;;5063310;28;20055;-52
2023/07/27 11:27:37;;;;;;;7.40;0.95;;;;;;;;;;5063274;28;20020;-55
2023/07/27 11:30:06;;;;;;;16.98;1.58;;;;;;;;;;5063326;28;20204;-52
2023/07/27 11:32:33;;;;;;;5.18;2.20;;;;;;;;;;5063251;28;20067;-51
2023/07/27 11:34:59;;;;;;;112.38;7.38;;;;;;;;;;5063150;28;20021;-53
2023/07/27 11:37:26;;;;;;;12.48;2.60;;;;;;;;;;5063292;28;20032;-52
2023/07/27 11:39:53;;;;;;;11.82;1.75;;;;;;;;;;5063492;28;20017;-50
2023/07/27 11:42:28;;;;;;;19.48;1.80;;;;;;;;;;5060085;28;20046;-50
2023/07/27 11:44:55;;;;;;;6.88;1.95;;;;;;;;;;5046661;28;20045;-52
2023/07/27 11:47:22;;;;;;;8.57;1.67;;;;;;;;;;5046819;28;20083;-53
2023/07/27 11:49:50;;;;;;;4.60;1.50;;;;;;;;;;5046580;28;20268;-50
2023/07/27 11:52:21;;;;;;;15.95;2.10;;;;;;;;;;5046716;28;20063;-52
2023/07/27 11:54:52;;;;;;;22.02;2.28;;;;;;;;;;5046617;28;20025;-52
2023/07/27 11:57:18;;;;;;;14.88;1.90;;;;;;;;;;5046484;28;20097;-51
2023/07/27 12:00:06;;;;;;;29.60;2.25;;;;;;;;;;5046540;28;20017;-55
2023/07/27 12:02:33;;;;;;;6.78;1.55;;;;;;;;;;5046349;28;20030;-52
2023/07/27 12:05:00;;;;;;;4.75;1.23;;;;;;;;;;5046442;28;20143;-56
2023/07/27 12:07:28;;;;;;;11.60;1.40;;;;;;;;;;5046409;28;20017;-50
2023/07/27 12:09:54;;;;;;;8.70;1.48;;;;;;;;;;5046141;28;20033;-51
2023/07/27 12:12:21;;;;;;;12.07;1.70;;;;;;;;;;5046328;28;20074;-51
2023/07/27 12:14:48;;;;;;;10.32;1.60;;;;;;;;;;5046258;28;20300;-57
2023/07/27 12:17:15;;;;;;;32.10;2.70;;;;;;;;;;5046085;28;20025;-50
2023/07/27 12:19:42;;;;;;;10.13;1.58;;;;;;;;;;5046178;28;20379;-52
2023/07/27 12:22:08;;;;;;;14.32;1.25;;;;;;;;;;5046151;28;20381;-50
2023/07/27 12:24:35;;;;;;;6.15;1.33;;;;;;;;;;5045900;28;20017;-52
2023/07/27 12:27:06;;;;;;;5.43;1.00;;;;;;;;;;5046518;28;20035;-51
2023/07/27 12:29:33;;;;;;;10.20;1.45;;;;;;;;;;5046020;28;20020;-52
2023/07/27 12:31:59;;;;;;;1.85;0.73;;;;;;;;;;5046302;28;20029;-52
2023/07/27 12:34:26;;;;;;;7.15;0.90;;;;;;;;;;5045767;28;20064;-52
2023/07/27 12:36:53;;;;;;;8.15;1.10;;;;;;;;;;5046324;28;20247;-51
2023/07/27 12:39:20;;;;;;;6.32;1.00;;;;;;;;;;5045687;28;20295;-51
2023/07/27 12:41:47;;;;;;;76.15;4.40;;;;;;;;;;5046175;28;20041;-51
2023/07/27 12:44:14;;;;;;;211.93;9.57;;;;;;;;;;5045678;28;20056;-52
2023/07/27 12:46:41;;;;;;;31.05;2.15;;;;;;;;;;5045938;28;20048;-51
2023/07/27 12:49:07;;;;;;;23.27;1.83;;;;;;;;;;5045606;28;20097;-52
2023/07/27 12:51:34;;;;;;;26.27;2.38;;;;;;;;;;5045999;28;20055;-51
2023/07/27 12:54:04;;;;;;;15.57;1.63;;;;;;;;;;5045312;28;20135;-53
2023/07/27 12:56:30;;;;;;;17.17;1.30;;;;;;;;;;5045921;28;20056;-51
2023/07/27 12:58:57;;;;;;;7.25;1.25;;;;;;;;;;5045435;28;20021;-56
2023/07/27 13:01:25;;;;;;;6.18;0.95;;;;;;;;;;5045589;28;20067;-51
2023/07/27 13:03:51;;;;;;;4.78;0.95;;;;;;;;;;5045420;28;20045;-53
2023/07/27 13:06:18;;;;;;;4.47;0.70;;;;;;;;;;5045736;28;20022;-52
2023/07/27 13:08:45;;;;;;;6.22;0.73;;;;;;;;;;5045104;28;20076;-51
2023/07/27 13:11:11;;;;;;;5.78;1.00;;;;;;;;;;5045612;28;20097;-55
2023/07/27 13:13:38;;;;;;;5.55;1.15;;;;;;;;;;5045150;28;20052;-51
2023/07/27 13:16:04;;;;;;;2.58;1.00;;;;;;;;;;5045229;28;20029;-52
2023/07/27 13:18:31;;;;;;;4.25;1.13;;;;;;;;;;5045113;28;20040;-51
2023/07/27 13:20:58;;;;;;;5.25;0.80;;;;;;;;;;5045249;28;20240;-52
2023/07/27 13:23:24;;;;;;;8.32;1.10;;;;;;;;;;5044803;28;20033;-50
2023/07/27 13:25:51;;;;;;;1.88;0.70;;;;;;;;;;5045170;28;20217;-52
2023/07/27 13:28:18;;;;;;;5.03;1.08;;;;;;;;;;5044964;28;20017;-52
2023/07/27 13:30:44;;;;;;;12.77;1.40;;;;;;;;;;5045176;28;20135;-56
2023/07/27 13:33:11;;;;;;;2.03;0.70;;;;;;;;;;5065501;28;20228;-51
2023/07/27 13:35:38;;;;;;;4.50;0.70;;;;;;;;;;5053511;28;20032;-50
2023/07/27 13:38:05;;;;;;;5.05;1.23;;;;;;;;;;5059622;28;20272;-50
2023/07/27 13:40:32;;;;;;;5.10;1.00;;;;;;;;;;5064846;28;20162;-55
2023/07/27 13:42:58;;;;;;;9.35;0.90;;;;;;;;;;5062697;28;20023;-60
2023/07/27 13:45:25;;;;;;;4.25;0.80;;;;;;;;;;5063804;28;20052;-57
2023/07/27 13:47:52;;;;;;;4.28;0.80;;;;;;;;;;5062616;28;20109;-48
2023/07/27 13:50:18;;;;;;;4.82;0.65;;;;;;;;;;5061482;28;20074;-52
2023/07/27 13:52:46;;;;;;;1.92;0.60;;;;;;;;;;5053437;28;20029;-49
2023/07/27 13:55:13;;;;;;;2.80;0.70;;;;;;;;;;5064502;28;20079;-49
2023/07/27 13:57:39;;;;;;;2.33;0.70;;;;;;;;;;5064471;28;20013;-54
2023/07/27 14:00:07;;;;;;;4.18;0.60;;;;;;;;;;5064366;28;20056;-50
2023/07/27 14:02:34;;;;;;;1.50;0.50;;;;;;;;;;5063599;28;20056;-50
2023/07/27 14:05:01;;;;;;;2.50;0.60;;;;;;;;;;5065852;28;20045;-48
2023/07/27 14:07:28;;;;;;;3.30;0.60;;;;;;;;;;5054621;28;20075;-49
2023/07/27 14:09:54;;;;;;;4.20;0.90;;;;;;;;;;5044129;28;20041;-48
2023/07/27 14:12:21;;;;;;;2.70;0.68;;;;;;;;;;5055781;28;20025;-51
2023/07/27 14:14:48;;;;;;;3.55;0.73;;;;;;;;;;5044228;28;20102;-47
2023/07/27 14:17:14;;;;;;;3.60;0.43;;;;;;;;;;5044103;28;20375;-51
2023/07/27 14:19:42;;;;;;;5.93;0.80;;;;;;;;;;5044091;28;20021;-52
2023/07/27 14:22:10;;;;;;;2.72;0.63;;;;;;;;;;5058551;28;20021;-46
2023/07/27 14:24:36;;;;;;;1.65;0.60;;;;;;;;;;5062799;28;20070;-54
2023/07/27 14:27:03;;;;;;;1.35;0.38;;;;;;;;;;5063344;28;20073;-47
2023/07/27 14:29:32;;;;;;;6.93;1.35;;;;;;;;;;5057769;28;20040;-49
2023/07/27 14:31:59;;;;;;;10.93;4.70;;;;;;;;;;5050422;28;20033;-47
2023/07/27 14:34:27;;;;;;;8.65;4.25;;;;;;;;;;5063884;28;20320;-50
2023/07/27 14:36:55;;;;;;;4.22;2.83;;;;;;;;;;5064016;28;20126;-50
2023/07/27 14:39:21;;;;;;;8.57;2.20;;;;;;;;;;5062465;28;20029;-50
2023/07/27 14:41:48;;;;;;;4.28;2.60;;;;;;;;;;5064125;28;20021;-49
2023/07/27 14:44:15;;;;;;;4.82;2.30;;;;;;;;;;5061539;28;20266;-50